sensor_id;sensor_type;location;lat;lon;timestamp;pressure;altitude;pressure_sealevel;temperature;humidity
21588;BME280;10956;48.878;13.316;2024-02-16T00:01:45;94270.47;;;5.58;100.00
21588;BME280;10956;48.878;13.316;2024-02-16T00:04:10;94272.53;;;5.56;100.00
21588;BME280;10956;48.878;13.316;2024-02-16T00:06:36;94263.91;;;5.55;100.00
21588;BME280;10956;48.878;13.316;2024-02-16T00:09:01;94263.19;;;5.60;100.00
21588;BME280;10956;48.878;13.316;2024-02-16T00:11:26;94263.19;;;5.60;100.00
21588;BME280;10956;48.878;13.316;2024-02-16T00:13:53;94252.75;;;5.60;100.00
21588;BME280;10956;48.878;13.316;2024-02-16T00:16:19;94260.91;;;5.63;100.00
21588;BME280;10956;48.878;13.316;2024-02-16T00:18:44;94256.00;;;5.67;100.00
21588;BME280;10956;48.878;13.316;2024-02-16T00:21:09;94259.66;;;5.66;100.00
21588;BME280;10956;48.878;13.316;2024-02-16T00:23:35;94254.97;;;5.68;100.00
21588;BME280;10956;48.878;13.316;2024-02-16T00:26:01;94248.72;;;5.69;100.00
21588;BME280;10956;48.878;13.316;2024-02-16T00:28:27;94259.75;;;5.71;100.00
21588;BME280;10956;48.878;13.316;2024-02-16T00:30:52;94244.16;;;5.76;100.00
21588;BME280;10956;48.878;13.316;2024-02-16T00:33:17;94239.16;;;5.74;100.00
21588;BME280;10956;48.878;13.316;2024-02-16T00:35:44;94250.31;;;5.70;100.00
21588;BME280;10956;48.878;13.316;2024-02-16T00:38:09;94233.97;;;5.63;100.00
21588;BME280;10956;48.878;13.316;2024-02-16T00:40:35;94242.28;;;5.60;100.00
21588;BME280;10956;48.878;13.316;2024-02-16T00:43:00;94238.63;;;5.61;100.00
21588;BME280;10956;48.878;13.316;2024-02-16T00:45:26;94242.75;;;5.57;100.00
21588;BME280;10956;48.878;13.316;2024-02-16T00:47:51;94242.19;;;5.55;100.00
21588;BME280;10956;48.878;13.316;2024-02-16T00:50:16;94238.78;;;5.54;100.00
21588;BME280;10956;48.878;13.316;2024-02-16T00:52:42;94239.56;;;5.55;100.00
21588;BME280;10956;48.878;13.316;2024-02-16T00:55:10;94241.41;;;5.54;100.00
21588;BME280;10956;48.878;13.316;2024-02-16T00:57:35;94243.69;;;5.50;100.00
21588;BME280;10956;48.878;13.316;2024-02-16T01:00:01;94244.16;;;5.47;100.00
21588;BME280;10956;48.878;13.316;2024-02-16T01:02:28;94240.97;;;5.45;100.00
21588;BME280;10956;48.878;13.316;2024-02-16T01:04:54;94235.75;;;5.45;100.00
21588;BME280;10956;48.878;13.316;2024-02-16T01:07:23;94242.00;;;5.44;100.00
21588;BME280;10956;48.878;13.316;2024-02-16T01:09:48;94250.31;;;5.41;100.00
21588;BME280;10956;48.878;13.316;2024-02-16T01:12:14;94236.66;;;5.39;100.00
21588;BME280;10956;48.878;13.316;2024-02-16T01:14:39;94235.09;;;5.38;100.00
21588;BME280;10956;48.878;13.316;2024-02-16T01:17:04;94237.78;;;5.43;100.00
21588;BME280;10956;48.878;13.316;2024-02-16T01:19:30;94234.03;;;5.51;100.00
21588;BME280;10956;48.878;13.316;2024-02-16T01:21:55;94233.88;;;5.58;100.00
21588;BME280;10956;48.878;13.316;2024-02-16T01:24:23;94227.25;;;5.67;100.00
21588;BME280;10956;48.878;13.316;2024-02-16T01:26:48;94230.44;;;5.69;100.00
21588;BME280;10956;48.878;13.316;2024-02-16T01:29:14;94221.47;;;5.65;100.00
21588;BME280;10956;48.878;13.316;2024-02-16T01:31:39;94219.31;;;5.62;100.00
21588;BME280;10956;48.878;13.316;2024-02-16T01:34:05;94218.19;;;5.58;100.00
21588;BME280;10956;48.878;13.316;2024-02-16T01:36:30;94222.78;;;5.50;100.00
21588;BME280;10956;48.878;13.316;2024-02-16T01:38:55;94219.47;;;5.55;100.00
21588;BME280;10956;48.878;13.316;2024-02-16T01:41:21;94213.91;;;5.51;100.00
21588;BME280;10956;48.878;13.316;2024-02-16T01:43:46;94211.38;;;5.57;100.00
21588;BME280;10956;48.878;13.316;2024-02-16T01:46:11;94210.81;;;5.55;100.00
21588;BME280;10956;48.878;13.316;2024-02-16T01:48:37;94206.94;;;5.57;100.00
21588;BME280;10956;48.878;13.316;2024-02-16T01:51:06;94213.09;;;5.51;100.00
21588;BME280;10956;48.878;13.316;2024-02-16T01:53:34;94211.19;;;5.46;100.00
21588;BME280;10956;48.878;13.316;2024-02-16T01:56:00;94215.31;;;5.42;100.00
21588;BME280;10956;48.878;13.316;2024-02-16T01:58:25;94212.59;;;5.37;100.00
21588;BME280;10956;48.878;13.316;2024-02-16T02:00:52;94205.22;;;5.34;100.00
21588;BME280;10956;48.878;13.316;2024-02-16T02:03:17;94200.69;;;5.30;100.00
21588;BME280;10956;48.878;13.316;2024-02-16T02:05:46;94191.41;;;5.22;100.00
21588;BME280;10956;48.878;13.316;2024-02-16T02:08:12;94196.06;;;5.20;100.00
21588;BME280;10956;48.878;13.316;2024-02-16T02:10:38;94192.44;;;5.21;100.00
21588;BME280;10956;48.878;13.316;2024-02-16T02:13:03;94197.19;;;5.24;100.00
21588;BME280;10956;48.878;13.316;2024-02-16T02:15:29;94195.97;;;5.15;100.00
21588;BME280;10956;48.878;13.316;2024-02-16T02:17:54;94196.44;;;5.12;100.00
21588;BME280;10956;48.878;13.316;2024-02-16T02:20:20;94188.59;;;5.12;100.00
21588;BME280;10956;48.878;13.316;2024-02-16T02:22:45;94184.81;;;5.19;100.00
21588;BME280;10956;48.878;13.316;2024-02-16T02:25:10;94178.91;;;5.24;100.00
21588;BME280;10956;48.878;13.316;2024-02-16T02:27:37;94183.09;;;5.25;100.00
21588;BME280;10956;48.878;13.316;2024-02-16T02:30:03;94176.28;;;5.24;100.00
21588;BME280;10956;48.878;13.316;2024-02-16T02:32:28;94181.97;;;5.21;100.00
21588;BME280;10956;48.878;13.316;2024-02-16T02:34:54;94177.22;;;5.18;100.00
21588;BME280;10956;48.878;13.316;2024-02-16T02:37:19;94172.44;;;5.15;100.00
21588;BME280;10956;48.878;13.316;2024-02-16T02:39:45;94174.19;;;5.09;100.00
21588;BME280;10956;48.878;13.316;2024-02-16T02:42:10;94170.22;;;5.07;100.00
21588;BME280;10956;48.878;13.316;2024-02-16T02:44:36;94172.25;;;5.05;100.00
21588;BME280;10956;48.878;13.316;2024-02-16T02:47:01;94173.84;;;5.06;100.00
21588;BME280;10956;48.878;13.316;2024-02-16T02:49:26;94164.97;;;5.07;100.00
21588;BME280;10956;48.878;13.316;2024-02-16T02:51:52;94170.22;;;5.07;100.00
21588;BME280;10956;48.878;13.316;2024-02-16T02:54:17;94171.22;;;5.06;100.00
21588;BME280;10956;48.878;13.316;2024-02-16T02:56:43;94167.38;;;5.08;100.00
21588;BME280;10956;48.878;13.316;2024-02-16T02:59:09;94169.59;;;5.16;100.00
21588;BME280;10956;48.878;13.316;2024-02-16T03:01:36;94171.84;;;5.25;100.00
21588;BME280;10956;48.878;13.316;2024-02-16T03:04:02;94164.44;;;5.33;100.00
21588;BME280;10956;48.878;13.316;2024-02-16T03:06:28;94159.53;;;5.37;100.00
21588;BME280;10956;48.878;13.316;2024-02-16T03:08:53;94158.75;;;5.36;100.00
21588;BME280;10956;48.878;13.316;2024-02-16T03:11:18;94159.69;;;5.30;100.00
21588;BME280;10956;48.878;13.316;2024-02-16T03:13:44;94158.88;;;5.30;100.00
21588;BME280;10956;48.878;13.316;2024-02-16T03:16:10;94152.63;;;5.31;100.00
21588;BME280;10956;48.878;13.316;2024-02-16T03:18:35;94145.03;;;5.29;100.00
21588;BME280;10956;48.878;13.316;2024-02-16T03:21:01;94155.47;;;5.29;100.00
21588;BME280;10956;48.878;13.316;2024-02-16T03:23:26;94154.91;;;5.27;100.00
21588;BME280;10956;48.878;13.316;2024-02-16T03:25:52;94157.53;;;5.27;100.00
21588;BME280;10956;48.878;13.316;2024-02-16T03:28:18;94154.91;;;5.27;100.00
21588;BME280;10956;48.878;13.316;2024-02-16T03:30:43;94156.50;;;5.28;100.00
21588;BME280;10956;48.878;13.316;2024-02-16T03:33:09;94160.59;;;5.24;100.00
21588;BME280;10956;48.878;13.316;2024-02-16T03:35:36;94160.03;;;5.22;100.00
21588;BME280;10956;48.878;13.316;2024-02-16T03:38:02;94158.47;;;5.21;100.00
21588;BME280;10956;48.878;13.316;2024-02-16T03:40:28;94156.66;;;5.22;100.00
21588;BME280;10956;48.878;13.316;2024-02-16T03:42:53;94154.59;;;5.24;100.00
21588;BME280;10956;48.878;13.316;2024-02-16T03:45:19;94163.78;;;5.26;100.00
21588;BME280;10956;48.878;13.316;2024-02-16T03:47:45;94162.19;;;5.25;100.00
21588;BME280;10956;48.878;13.316;2024-02-16T03:50:10;94165.38;;;5.27;100.00
21588;BME280;10956;48.878;13.316;2024-02-16T03:52:36;94166.03;;;5.34;100.00
21588;BME280;10956;48.878;13.316;2024-02-16T03:55:02;94173.94;;;5.39;100.00
21588;BME280;10956;48.878;13.316;2024-02-16T03:57:29;94169.84;;;5.43;100.00
21588;BME280;10956;48.878;13.316;2024-02-16T03:59:55;94174.50;;;5.41;100.00
21588;BME280;10956;48.878;13.316;2024-02-16T04:02:20;94171.34;;;5.39;100.00
21588;BME280;10956;48.878;13.316;2024-02-16T04:04:46;94171.34;;;5.39;100.00
21588;BME280;10956;48.878;13.316;2024-02-16T04:07:11;94165.41;;;5.44;100.00
21588;BME280;10956;48.878;13.316;2024-02-16T04:09:37;94165.56;;;5.37;100.00
21588;BME280;10956;48.878;13.316;2024-02-16T04:12:03;94176.06;;;5.26;100.00
21588;BME280;10956;48.878;13.316;2024-02-16T04:14:29;94170.06;;;5.13;100.00
21588;BME280;10956;48.878;13.316;2024-02-16T04:16:56;94169.75;;;5.10;100.00
21588;BME280;10956;48.878;13.316;2024-02-16T04:19:25;94173.38;;;5.09;100.00
21588;BME280;10956;48.878;13.316;2024-02-16T04:21:51;94173.38;;;5.09;100.00
21588;BME280;10956;48.878;13.316;2024-02-16T04:24:17;94179.06;;;5.06;100.00
21588;BME280;10956;48.878;13.316;2024-02-16T04:26:43;94177.16;;;5.01;100.00
21588;BME280;10956;48.878;13.316;2024-02-16T04:29:08;94180.00;;;5.00;100.00
21588;BME280;10956;48.878;13.316;2024-02-16T04:31:34;94176.81;;;4.98;100.00
21588;BME280;10956;48.878;13.316;2024-02-16T04:33:59;94168.41;;;4.96;100.00
21588;BME280;10956;48.878;13.316;2024-02-16T04:36:24;94172.06;;;4.95;100.00
21588;BME280;10956;48.878;13.316;2024-02-16T04:38:50;94176.81;;;4.98;100.00
21588;BME280;10956;48.878;13.316;2024-02-16T04:41:16;94167.97;;;4.99;100.00
21588;BME280;10956;48.878;13.316;2024-02-16T04:43:41;94168.84;;;5.04;100.00
21588;BME280;10956;48.878;13.316;2024-02-16T04:46:06;94168.06;;;5.04;100.00
21588;BME280;10956;48.878;13.316;2024-02-16T04:48:32;94176.69;;;5.04;100.00
21588;BME280;10956;48.878;13.316;2024-02-16T04:50:59;94180.78;;;5.00;100.00
21588;BME280;10956;48.878;13.316;2024-02-16T04:53:24;94176.34;;;5.01;100.00
21588;BME280;10956;48.878;13.316;2024-02-16T04:55:50;94171.59;;;4.98;100.00
21588;BME280;10956;48.878;13.316;2024-02-16T04:58:16;94168.28;;;5.02;100.00
21588;BME280;10956;48.878;13.316;2024-02-16T05:00:42;94170.81;;;4.97;100.00
21588;BME280;10956;48.878;13.316;2024-02-16T05:03:07;94164.78;;;4.97;100.00
21588;BME280;10956;48.878;13.316;2024-02-16T05:05:33;94157.50;;;4.99;100.00
21588;BME280;10956;48.878;13.316;2024-02-16T05:08:00;94169.13;;;4.91;100.00
21588;BME280;10956;48.878;13.316;2024-02-16T05:10:25;94164.78;;;4.97;100.00
21588;BME280;10956;48.878;13.316;2024-02-16T05:12:50;94169.09;;;5.03;100.00
21588;BME280;10956;48.878;13.316;2024-02-16T05:15:16;94167.97;;;4.99;100.00
21588;BME280;10956;48.878;13.316;2024-02-16T05:17:42;94170.00;;;4.97;100.00
21588;BME280;10956;48.878;13.316;2024-02-16T05:20:11;94170.00;;;4.97;100.00
21588;BME280;10956;48.878;13.316;2024-02-16T05:22:44;94163.53;;;4.99;100.00
21588;BME280;10956;48.878;13.316;2024-02-16T05:25:14;94164.00;;;4.96;100.00
21588;BME280;10956;48.878;13.316;2024-02-16T05:27:40;94169.13;;;4.91;100.00
21588;BME280;10956;48.878;13.316;2024-02-16T05:30:05;94168.22;;;4.85;100.00
21588;BME280;10956;48.878;13.316;2024-02-16T05:32:36;94167.44;;;4.85;100.00
21588;BME280;10956;48.878;13.316;2024-02-16T05:35:06;94172.97;;;4.89;100.00
21588;BME280;10956;48.878;13.316;2024-02-16T05:37:43;94173.66;;;4.96;100.00
21588;BME280;10956;48.878;13.316;2024-02-16T05:40:10;94182.59;;;5.00;100.00
21588;BME280;10956;48.878;13.316;2024-02-16T05:42:54;94179.53;;;5.03;100.00
21588;BME280;10956;48.878;13.316;2024-02-16T05:45:23;94174.97;;;5.10;100.00
21588;BME280;10956;48.878;13.316;2024-02-16T05:47:49;94177.34;;;5.11;100.00
21588;BME280;10956;48.878;13.316;2024-02-16T05:50:15;94179.25;;;5.16;100.00
21588;BME280;10956;48.878;13.316;2024-02-16T05:52:41;94177.69;;;5.15;100.00
21588;BME280;10956;48.878;13.316;2024-02-16T05:55:08;94175.31;;;5.13;100.00
21588;BME280;10956;48.878;13.316;2024-02-16T05:57:34;94170.88;;;5.14;100.00
21588;BME280;10956;48.878;13.316;2024-02-16T06:00:01;94178.59;;;5.09;100.00
21588;BME280;10956;48.878;13.316;2024-02-16T06:02:26;94181.78;;;5.11;100.00
21588;BME280;10956;48.878;13.316;2024-02-16T06:04:53;94174.38;;;5.19;100.00
21588;BME280;10956;48.878;13.316;2024-02-16T06:07:18;94182.72;;;5.33;100.00
21588;BME280;10956;48.878;13.316;2024-02-16T06:09:44;94186.94;;;5.34;100.00
21588;BME280;10956;48.878;13.316;2024-02-16T06:12:09;94192.81;;;5.41;100.00
21588;BME280;10956;48.878;13.316;2024-02-16T06:14:35;94194.56;;;5.53;100.00
21588;BME280;10956;48.878;13.316;2024-02-16T06:17:03;94197.84;;;5.60;100.00
21588;BME280;10956;48.878;13.316;2024-02-16T06:19:28;94204.44;;;5.62;100.00
21588;BME280;10956;48.878;13.316;2024-02-16T06:21:54;94206.34;;;5.67;100.00
21588;BME280;10956;48.878;13.316;2024-02-16T06:24:24;94194.63;;;5.69;100.00
21588;BME280;10956;48.878;13.316;2024-02-16T06:26:50;94203.81;;;5.72;100.00
21588;BME280;10956;48.878;13.316;2024-02-16T06:29:18;94211.09;;;5.70;100.00
21588;BME280;10956;48.878;13.316;2024-02-16T06:31:46;94210.53;;;5.68;100.00
21588;BME280;10956;48.878;13.316;2024-02-16T06:34:15;94216.78;;;5.67;100.00
21588;BME280;10956;48.878;13.316;2024-02-16T06:36:41;94214.75;;;5.69;100.00
21588;BME280;10956;48.878;13.316;2024-02-16T06:39:07;94207.69;;;5.69;100.00
21588;BME280;10956;48.878;13.316;2024-02-16T06:41:32;94213.81;;;5.75;100.00
21588;BME280;10956;48.878;13.316;2024-02-16T06:43:57;94219.13;;;5.80;100.00
21588;BME280;10956;48.878;13.316;2024-02-16T06:46:23;94221.59;;;5.87;100.00
21588;BME280;10956;48.878;13.316;2024-02-16T06:48:50;94226.22;;;5.96;100.00
21588;BME280;10956;48.878;13.316;2024-02-16T06:51:17;94230.03;;;6.05;100.00
21588;BME280;10956;48.878;13.316;2024-02-16T06:53:42;94232.28;;;6.13;100.00
21588;BME280;10956;48.878;13.316;2024-02-16T06:56:08;94231.31;;;6.20;100.00
21588;BME280;10956;48.878;13.316;2024-02-16T06:58:33;94233.56;;;6.28;100.00
21588;BME280;10956;48.878;13.316;2024-02-16T07:01:01;94238.94;;;6.38;100.00
21588;BME280;10956;48.878;13.316;2024-02-16T07:03:29;94239.03;;;6.43;100.00
21588;BME280;10956;48.878;13.316;2024-02-16T07:05:54;94231.47;;;6.46;100.00
21588;BME280;10956;48.878;13.316;2024-02-16T07:08:20;94229.97;;;6.51;100.00
21588;BME280;10956;48.878;13.316;2024-02-16T07:10:46;94229.25;;;6.55;100.00
21588;BME280;10956;48.878;13.316;2024-02-16T07:13:12;94228.59;;;6.65;100.00
21588;BME280;10956;48.878;13.316;2024-02-16T07:15:38;94230.03;;;6.72;100.00
21588;BME280;10956;48.878;13.316;2024-02-16T07:18:04;94235.25;;;6.72;100.00
21588;BME280;10956;48.878;13.316;2024-02-16T07:20:30;94237.47;;;6.80;100.00
21588;BME280;10956;48.878;13.316;2024-02-16T07:22:55;94234.44;;;6.89;100.00
21588;BME280;10956;48.878;13.316;2024-02-16T07:25:20;94238.72;;;6.95;100.00
21588;BME280;10956;48.878;13.316;2024-02-16T07:27:46;94239.88;;;7.04;100.00
21588;BME280;10956;48.878;13.316;2024-02-16T07:30:11;94242.63;;;7.14;100.00
21588;BME280;10956;48.878;13.316;2024-02-16T07:32:38;94241.72;;;7.25;100.00
21588;BME280;10956;48.878;13.316;2024-02-16T07:35:04;94243.38;;;7.31;100.00
21588;BME280;10956;48.878;13.316;2024-02-16T07:37:29;94246.06;;;7.36;100.00
21588;BME280;10956;48.878;13.316;2024-02-16T07:39:55;94239.59;;;7.44;100.00
21588;BME280;10956;48.878;13.316;2024-02-16T07:42:20;94250.94;;;7.50;100.00
21588;BME280;10956;48.878;13.316;2024-02-16T07:44:46;94253.63;;;7.55;100.00
21588;BME280;10956;48.878;13.316;2024-02-16T07:47:12;94259.72;;;7.60;100.00
21588;BME280;10956;48.878;13.316;2024-02-16T07:49:40;94245.88;;;7.65;100.00
21588;BME280;10956;48.878;13.316;2024-02-16T07:52:06;94248.78;;;7.68;100.00
21588;BME280;10956;48.878;13.316;2024-02-16T07:54:31;94248.28;;;7.71;100.00
21588;BME280;10956;48.878;13.316;2024-02-16T07:56:57;94253.53;;;7.71;100.00
21588;BME280;10956;48.878;13.316;2024-02-16T07:59:25;94256.22;;;7.76;100.00
21588;BME280;10956;48.878;13.316;2024-02-16T08:01:50;94260.97;;;7.80;100.00
21588;BME280;10956;48.878;13.316;2024-02-16T08:04:16;94255.53;;;7.86;100.00
21588;BME280;10956;48.878;13.316;2024-02-16T08:06:41;94255.03;;;7.89;100.00
21588;BME280;10956;48.878;13.316;2024-02-16T08:09:06;94258.75;;;7.93;100.00
21588;BME280;10956;48.878;13.316;2024-02-16T08:11:32;94260.38;;;7.99;100.00
21588;BME280;10956;48.878;13.316;2024-02-16T08:13:57;94257.28;;;8.02;100.00
21588;BME280;10956;48.878;13.316;2024-02-16T08:16:28;94255.53;;;8.13;100.00
21588;BME280;10956;48.878;13.316;2024-02-16T08:18:53;94259.91;;;8.02;100.00
21588;BME280;10956;48.878;13.316;2024-02-16T08:21:19;94260.88;;;7.96;100.00
21588;BME280;10956;48.878;13.316;2024-02-16T08:23:44;94258.22;;;7.91;100.00
21588;BME280;10956;48.878;13.316;2024-02-16T08:26:10;94257.63;;;7.84;100.00
21588;BME280;10956;48.878;13.316;2024-02-16T08:28:35;94253.91;;;7.80;100.00
21588;BME280;10956;48.878;13.316;2024-02-16T08:31:00;94254.94;;;7.79;100.00
21588;BME280;10956;48.878;13.316;2024-02-16T08:33:26;94253.34;;;7.78;100.00
21588;BME280;10956;48.878;13.316;2024-02-16T08:35:51;94247.00;;;7.74;100.00
21588;BME280;10956;48.878;13.316;2024-02-16T08:38:17;94252.25;;;7.74;100.00
21588;BME280;10956;48.878;13.316;2024-02-16T08:40:42;94252.25;;;7.74;100.00
21588;BME280;10956;48.878;13.316;2024-02-16T08:43:07;94259.63;;;7.77;100.00
21588;BME280;10956;48.878;13.316;2024-02-16T08:45:34;94254.94;;;7.79;100.00
21588;BME280;10956;48.878;13.316;2024-02-16T08:47:59;94252.38;;;7.84;100.00
21588;BME280;10956;48.878;13.316;2024-02-16T08:50:27;94263.94;;;7.88;100.00
21588;BME280;10956;48.878;13.316;2024-02-16T08:52:52;94259.78;;;7.92;100.00
21588;BME280;10956;48.878;13.316;2024-02-16T08:55:19;94256.19;;;7.98;100.00
21588;BME280;10956;48.878;13.316;2024-02-16T08:57:45;94263.66;;;8.12;100.00
21588;BME280;10956;48.878;13.316;2024-02-16T09:00:11;94265.88;;;8.25;100.00
21588;BME280;10956;48.878;13.316;2024-02-16T09:02:37;94258.56;;;8.27;100.00
21588;BME280;10956;48.878;13.316;2024-02-16T09:05:03;94263.56;;;8.28;100.00
21588;BME280;10956;48.878;13.316;2024-02-16T09:07:29;94272.75;;;8.31;100.00
21588;BME280;10956;48.878;13.316;2024-02-16T09:09:54;94266.53;;;8.37;100.00
21588;BME280;10956;48.878;13.316;2024-02-16T09:12:21;94277.59;;;8.39;100.00
21588;BME280;10956;48.878;13.316;2024-02-16T09:14:46;94269.28;;;8.52;100.00
21588;BME280;10956;48.878;13.316;2024-02-16T09:17:11;94272.50;;;8.59;100.00
21588;BME280;10956;48.878;13.316;2024-02-16T09:19:38;94268.38;;;8.68;100.00
21588;BME280;10956;48.878;13.316;2024-02-16T09:22:03;94276.81;;;8.76;100.00
21588;BME280;10956;48.878;13.316;2024-02-16T09:24:31;94272.19;;;8.88;100.00
21588;BME280;10956;48.878;13.316;2024-02-16T09:26:57;94279.66;;;9.06;100.00
21588;BME280;10956;48.878;13.316;2024-02-16T09:29:23;94274.50;;;9.21;100.00
21588;BME280;10956;48.878;13.316;2024-02-16T09:31:49;94274.81;;;9.30;100.00
21588;BME280;10956;48.878;13.316;2024-02-16T09:34:17;94279.31;;;9.39;100.00
21588;BME280;10956;48.878;13.316;2024-02-16T09:36:43;94281.97;;;9.45;100.00
21588;BME280;10956;48.878;13.316;2024-02-16T09:39:08;94283.06;;;9.49;100.00
21588;BME280;10956;48.878;13.316;2024-02-16T09:41:34;94275.19;;;9.54;100.00
21588;BME280;10956;48.878;13.316;2024-02-16T09:44:03;94268.63;;;9.56;100.00
21588;BME280;10956;48.878;13.316;2024-02-16T09:46:30;94283.09;;;9.59;100.00
21588;BME280;10956;48.878;13.316;2024-02-16T09:49:02;94283.66;;;9.66;100.00
21588;BME280;10956;48.878;13.316;2024-02-16T09:51:28;94285.78;;;9.74;100.00
21588;BME280;10956;48.878;13.316;2024-02-16T09:53:54;94281.59;;;9.83;100.00
21588;BME280;10956;48.878;13.316;2024-02-16T09:56:22;94286.38;;;9.91;100.00
21588;BME280;10956;48.878;13.316;2024-02-16T09:58:51;94285.34;;;9.97;100.00
21588;BME280;10956;48.878;13.316;2024-02-16T10:01:18;94293.00;;;10.09;100.00
21588;BME280;10956;48.878;13.316;2024-02-16T10:03:47;94288.53;;;10.10;100.00
21588;BME280;10956;48.878;13.316;2024-02-16T10:06:13;94282.75;;;10.13;100.00
21588;BME280;10956;48.878;13.316;2024-02-16T10:08:51;94291.44;;;10.18;100.00
21588;BME280;10956;48.878;13.316;2024-02-16T10:11:17;94292.28;;;10.24;100.00
21588;BME280;10956;48.878;13.316;2024-02-16T10:13:58;94294.91;;;10.24;100.00
21588;BME280;10956;48.878;13.316;2024-02-16T10:16:25;94294.91;;;10.24;100.00
21588;BME280;10956;48.878;13.316;2024-02-16T10:18:50;94291.50;;;10.28;100.00
21588;BME280;10956;48.878;13.316;2024-02-16T10:21:29;94290.44;;;10.34;100.00
21588;BME280;10956;48.878;13.316;2024-02-16T10:23:59;94295.72;;;10.40;100.00
21588;BME280;10956;48.878;13.316;2024-02-16T10:26:25;94298.63;;;10.43;100.00
21588;BME280;10956;48.878;13.316;2024-02-16T10:28:55;94297.03;;;10.42;100.00
21588;BME280;10956;48.878;13.316;2024-02-16T10:31:24;94291.25;;;10.45;100.00
21588;BME280;10956;48.878;13.316;2024-02-16T10:34:01;94294.16;;;10.44;100.00
21588;BME280;10956;48.878;13.316;2024-02-16T10:36:31;94296.53;;;10.45;100.00
21588;BME280;10956;48.878;13.316;2024-02-16T10:38:57;94294.94;;;10.39;100.00
21588;BME280;10956;48.878;13.316;2024-02-16T10:41:26;94290.19;;;10.31;100.00
21588;BME280;10956;48.878;13.316;2024-02-16T10:43:55;94290.19;;;10.31;100.00
21588;BME280;10956;48.878;13.316;2024-02-16T10:46:22;94289.13;;;10.37;100.00
21588;BME280;10956;48.878;13.316;2024-02-16T10:48:49;94288.34;;;10.47;100.00
21588;BME280;10956;48.878;13.316;2024-02-16T10:51:16;94282.03;;;10.48;100.00
21588;BME280;10956;48.878;13.316;2024-02-16T10:53:45;94278.09;;;10.50;100.00
21588;BME280;10956;48.878;13.316;2024-02-16T10:56:13;94278.59;;;10.57;100.00
21588;BME280;10956;48.878;13.316;2024-02-16T10:58:38;94270.72;;;10.62;100.00
21588;BME280;10956;48.878;13.316;2024-02-16T11:01:09;94269.91;;;10.67;100.00
21588;BME280;10956;48.878;13.316;2024-02-16T11:03:38;94268.59;;;10.64;100.00
21588;BME280;10956;48.878;13.316;2024-02-16T11:06:24;94262.28;;;10.55;100.00
21588;BME280;10956;48.878;13.316;2024-02-16T11:08:50;94267.00;;;10.43;100.00
21588;BME280;10956;48.878;13.316;2024-02-16T11:11:22;94270.16;;;10.40;100.00
21588;BME280;10956;48.878;13.316;2024-02-16T11:13:48;94275.97;;;10.37;100.00
21588;BME280;10956;48.878;13.316;2024-02-16T11:16:14;94279.91;;;10.34;100.00
21588;BME280;10956;48.878;13.316;2024-02-16T11:18:43;94284.41;;;10.44;100.00
21588;BME280;10956;48.878;13.316;2024-02-16T11:21:15;94282.81;;;10.48;100.00
21588;BME280;10956;48.878;13.316;2024-02-16T11:23:41;94273.06;;;10.54;100.00
21588;BME280;10956;48.878;13.316;2024-02-16T11:26:12;94277.03;;;10.66;100.00
21588;BME280;10956;48.878;13.316;2024-02-16T11:28:40;94278.34;;;10.89;100.00
21588;BME280;10956;48.878;13.316;2024-02-16T11:31:06;94277.53;;;10.99;100.00
21588;BME280;10956;48.878;13.316;2024-02-16T11:33:34;94287.56;;;11.02;100.00
21588;BME280;10956;48.878;13.316;2024-02-16T11:36:04;94279.63;;;11.07;100.00
21588;BME280;10956;48.878;13.316;2024-02-16T11:38:31;94283.84;;;11.08;100.00
21588;BME280;10956;48.878;13.316;2024-02-16T11:41:02;94282.81;;;11.04;100.00
21588;BME280;10956;48.878;13.316;2024-02-16T11:43:29;94283.84;;;11.08;100.00
21588;BME280;10956;48.878;13.316;2024-02-16T11:45:55;94281.19;;;11.23;100.00
21588;BME280;10956;48.878;13.316;2024-02-16T11:48:21;94290.69;;;11.29;100.00
21588;BME280;10956;48.878;13.316;2024-02-16T11:50:48;94284.88;;;11.32;100.00
21588;BME280;10956;48.878;13.316;2024-02-16T11:53:18;94295.41;;;11.43;100.00
21588;BME280;10956;48.878;13.316;2024-02-16T11:55:47;94286.97;;;11.41;100.00
21588;BME280;10956;48.878;13.316;2024-02-16T11:58:15;94284.56;;;11.44;100.00
21588;BME280;10956;48.878;13.316;2024-02-16T12:00:41;94279.28;;;11.44;100.00
21588;BME280;10956;48.878;13.316;2024-02-16T12:03:07;94274.28;;;11.43;99.69
21588;BME280;10956;48.878;13.316;2024-02-16T12:05:33;94266.34;;;11.48;98.65
21588;BME280;10956;48.878;13.316;2024-02-16T12:07:58;94273.69;;;11.66;99.44
21588;BME280;10956;48.878;13.316;2024-02-16T12:10:25;94274.72;;;11.80;99.82
21588;BME280;10956;48.878;13.316;2024-02-16T12:12:51;94276.25;;;11.91;99.06
21588;BME280;10956;48.878;13.316;2024-02-16T12:15:17;94273.34;;;11.93;98.60
21588;BME280;10956;48.878;13.316;2024-02-16T12:17:44;94266.41;;;12.02;99.47
21588;BME280;10956;48.878;13.316;2024-02-16T12:20:12;94270.44;;;11.89;99.31
21588;BME280;10956;48.878;13.316;2024-02-16T12:22:40;94272.53;;;11.92;99.04
21588;BME280;10956;48.878;13.316;2024-02-16T12:25:06;94271.44;;;11.99;100.00
21588;BME280;10956;48.878;13.316;2024-02-16T12:27:31;94276.19;;;12.02;100.00
21588;BME280;10956;48.878;13.316;2024-02-16T12:29:56;94272.19;;;12.09;100.00
21588;BME280;10956;48.878;13.316;2024-02-16T12:32:22;94268.72;;;12.14;99.04
21588;BME280;10956;48.878;13.316;2024-02-16T12:34:47;94268.19;;;12.17;98.87
21588;BME280;10956;48.878;13.316;2024-02-16T12:37:13;94260.78;;;12.19;100.00
21588;BME280;10956;48.878;13.316;2024-02-16T12:39:38;94270.78;;;12.22;100.00
21588;BME280;10956;48.878;13.316;2024-02-16T12:42:06;94266.03;;;12.24;100.00
21588;BME280;10956;48.878;13.316;2024-02-16T12:44:32;94266.06;;;12.19;99.74